createdAt,value
2019-02-18T00:00:41.844Z,100451.41
2019-02-18T00:03:13.176Z,100450.93
2019-02-18T00:05:41.848Z,100451.34
2019-02-18T00:08:12.616Z,100443.26
2019-02-18T00:10:41.768Z,100450.61
2019-02-18T00:13:11.007Z,100449.43
2019-02-18T00:15:40.152Z,100449.09
2019-02-18T00:18:09.280Z,100450.98
2019-02-18T00:20:38.431Z,100450.98
2019-02-18T00:23:07.573Z,100449.69
2019-02-18T00:25:36.808Z,100449.05
2019-02-18T00:28:05.950Z,100447.42
2019-02-18T00:30:36.801Z,100455.14
2019-02-18T00:33:05.999Z,100453.16
2019-02-18T00:35:35.145Z,100453.25
2019-02-18T00:38:04.304Z,100453.58
2019-02-18T00:40:33.424Z,100457.84
2019-02-18T00:43:02.562Z,100456.09
2019-02-18T00:45:31.708Z,100455.74
2019-02-18T00:48:00.869Z,100451.44
2019-02-18T00:50:30.003Z,100451.42
2019-02-18T00:52:59.138Z,100447.16
2019-02-18T00:55:28.263Z,100446.20
2019-02-18T00:58:00.725Z,100452.38
2019-02-18T01:00:29.847Z,100447.02
2019-02-18T01:02:58.997Z,100447.87
2019-02-18T01:05:29.028Z,100445.39
2019-02-18T01:07:58.256Z,100444.45
2019-02-18T01:10:27.386Z,100444.47
2019-02-18T01:12:56.541Z,100446.16
2019-02-18T01:15:25.660Z,100444.14
2019-02-18T01:17:54.821Z,100444.83
2019-02-18T01:20:23.948Z,100448.45
2019-02-18T01:22:53.088Z,100448.48
2019-02-18T01:25:22.232Z,100448.73
2019-02-18T01:27:51.387Z,100443.12
2019-02-18T01:30:20.509Z,100437.89
2019-02-18T01:32:49.651Z,100440.36
2019-02-18T01:35:18.799Z,100438.38
2019-02-18T01:37:47.925Z,100435.86
2019-02-18T01:40:17.062Z,100432.41
2019-02-18T01:42:46.208Z,100438.09
2019-02-18T01:45:15.424Z,100435.37
2019-02-18T01:47:44.553Z,100430.37
2019-02-18T01:50:15.423Z,100424.41
2019-02-18T01:52:44.536Z,100425.10
2019-02-18T01:55:14.266Z,100422.71
2019-02-18T01:57:43.390Z,100420.19
2019-02-18T02:00:15.869Z,100423.84
2019-02-18T02:02:44.989Z,100415.77
2019-02-18T02:05:15.746Z,100421.32
2019-02-18T02:07:55.866Z,100419.50
2019-02-18T02:10:21.176Z,100414.14
2019-02-18T02:12:50.381Z,100411.59
2019-02-18T02:15:26.873Z,100413.53
2019-02-18T02:17:55.992Z,100406.95
2019-02-18T02:20:25.154Z,100407.28
2019-02-18T02:22:54.288Z,100408.83
2019-02-18T02:25:23.525Z,100405.17
2019-02-18T02:27:52.671Z,100405.49
2019-02-18T02:30:21.861Z,100400.42
2019-02-18T02:32:50.977Z,100410.85
2019-02-18T02:35:20.610Z,100406.95
2019-02-18T02:37:49.764Z,100405.73
2019-02-18T02:40:18.908Z,100403.91
2019-02-18T02:42:48.111Z,100405.28
2019-02-18T02:45:17.248Z,100401.48
2019-02-18T02:47:48.101Z,100406.05
2019-02-18T02:50:17.258Z,100402.32
2019-02-18T02:52:46.495Z,100392.92
2019-02-18T02:55:15.711Z,100392.55
2019-02-18T02:57:44.799Z,100388.66
2019-02-18T03:00:17.217Z,100390.11
2019-02-18T03:02:46.339Z,100394.05
2019-02-18T03:05:15.528Z,100393.60
2019-02-18T03:07:44.686Z,100396.31
2019-02-18T03:10:14.454Z,100394.09
2019-02-18T03:12:43.600Z,100395.38
2019-02-18T03:15:15.543Z,100393.36
2019-02-18T03:17:45.163Z,100394.08
2019-02-18T03:20:14.279Z,100396.47
2019-02-18T03:22:46.633Z,100392.82
2019-02-18T03:25:28.181Z,100399.91
2019-02-18T03:28:28.894Z,100395.77
2019-02-18T03:31:02.921Z,100400.01
2019-02-18T03:33:39.714Z,100395.95
2019-02-18T03:36:08.832Z,100400.49
2019-02-18T03:38:37.968Z,100401.64
2019-02-18T03:41:07.121Z,100404.52
2019-02-18T03:43:36.255Z,100406.17
2019-02-18T03:46:05.355Z,100398.11
2019-02-18T03:48:34.632Z,100405.16
2019-02-18T03:51:03.821Z,100403.83
2019-02-18T03:53:33.120Z,100404.47
2019-02-18T03:56:02.276Z,100405.81
2019-02-18T03:58:31.430Z,100404.92
2019-02-18T04:01:00.577Z,100410.41
2019-02-18T04:03:29.715Z,100408.70
2019-02-18T04:05:58.836Z,100411.94
2019-02-18T04:08:28.083Z,100413.00
2019-02-18T04:10:57.183Z,100411.45
2019-02-18T04:13:26.328Z,100405.22
2019-02-18T04:15:55.488Z,100409.23
2019-02-18T04:18:24.697Z,100407.88
2019-02-18T04:20:53.814Z,100411.50
2019-02-18T04:23:22.935Z,100405.82
2019-02-18T04:25:52.078Z,100412.03
2019-02-18T04:28:21.277Z,100411.61
2019-02-18T04:30:50.420Z,100408.12
2019-02-18T04:33:19.559Z,100404.20
2019-02-18T04:35:48.675Z,100409.47
2019-02-18T04:38:17.895Z,100406.67
2019-02-18T04:40:47.029Z,100405.97
2019-02-18T04:43:16.173Z,100408.23
2019-02-18T04:45:45.355Z,100402.07
2019-02-18T04:48:14.490Z,100400.61
2019-02-18T04:50:43.640Z,100398.02
2019-02-18T04:53:12.733Z,100402.64
2019-02-18T04:55:41.879Z,100400.94
2019-02-18T04:58:10.999Z,100397.58
2019-02-18T05:00:41.798Z,100402.41
2019-02-18T05:03:10.942Z,100401.67
2019-02-18T05:05:40.068Z,100396.89
2019-02-18T05:08:12.027Z,100396.09
2019-02-18T05:10:41.241Z,100393.33
2019-02-18T05:13:10.358Z,100394.20
2019-02-18T05:15:40.332Z,100392.17
2019-02-18T05:18:09.910Z,100386.69
2019-02-18T05:20:39.062Z,100391.34
2019-02-18T05:23:08.182Z,100387.81
2019-02-18T05:25:37.335Z,100390.23
2019-02-18T05:28:06.501Z,100389.34
2019-02-18T05:30:35.621Z,100387.67
2019-02-18T05:33:04.788Z,100394.50
2019-02-18T05:35:33.883Z,100391.50
2019-02-18T05:38:03.041Z,100398.31
2019-02-18T05:40:32.223Z,100395.31
2019-02-18T05:43:01.395Z,100403.29
2019-02-18T05:45:30.505Z,100395.22
2019-02-18T05:48:00.789Z,100398.62
2019-02-18T05:50:29.880Z,100394.23
2019-02-18T05:52:59.030Z,100395.77
2019-02-18T05:55:30.865Z,100392.33
2019-02-18T05:57:59.018Z,100390.94
2019-02-18T06:00:28.120Z,100395.09
2019-02-18T06:02:57.274Z,100395.53
2019-02-18T06:05:26.429Z,100396.50
2019-02-18T06:07:55.565Z,100391.80
2019-02-18T06:10:24.702Z,100392.25
2019-02-18T06:12:53.860Z,100392.17
2019-02-18T06:15:23.056Z,100389.23
2019-02-18T06:17:52.190Z,100391.05
2019-02-18T06:20:21.325Z,100391.77
2019-02-18T06:22:50.479Z,100393.78
2019-02-18T06:25:19.611Z,100395.05
2019-02-18T06:27:50.989Z,100398.04
2019-02-18T06:30:19.595Z,100392.20
2019-02-18T06:32:48.727Z,100393.43
2019-02-18T06:35:17.857Z,100393.53
2019-02-18T06:37:46.986Z,100396.13
2019-02-18T06:40:16.140Z,100395.64
2019-02-18T06:42:45.260Z,100396.86
2019-02-18T06:45:31.388Z,100395.72
2019-02-18T06:48:02.225Z,100394.52
2019-02-18T06:50:31.375Z,100394.39
2019-02-18T06:53:00.503Z,100399.38
2019-02-18T06:55:29.647Z,100404.44
2019-02-18T06:58:06.587Z,100408.55
2019-02-18T07:00:51.030Z,100406.05
2019-02-18T07:03:24.516Z,100402.60
2019-02-18T07:06:01.137Z,100404.80
2019-02-18T07:08:34.681Z,100408.72
2019-02-18T07:11:11.362Z,100410.80
2019-02-18T07:13:40.484Z,100405.84
2019-02-18T07:16:09.624Z,100407.16
2019-02-18T07:18:38.772Z,100406.45
2019-02-18T07:21:07.918Z,100408.20
2019-02-18T07:23:37.054Z,100404.00
2019-02-18T07:26:06.219Z,100408.70
2019-02-18T07:28:35.327Z,100408.34
2019-02-18T07:31:04.460Z,100412.43
2019-02-18T07:33:33.657Z,100410.36
2019-02-18T07:36:02.819Z,100403.75
2019-02-18T07:38:31.944Z,100405.78
2019-02-18T07:41:01.080Z,100405.70
2019-02-18T07:43:30.215Z,100405.11
2019-02-18T07:45:59.361Z,100408.53
2019-02-18T07:48:28.505Z,100406.06
2019-02-18T07:50:57.726Z,100400.65
2019-02-18T07:53:26.847Z,100402.78
2019-02-18T07:55:56.014Z,100406.72
2019-02-18T07:58:25.156Z,100405.27
2019-02-18T08:00:54.349Z,100405.84
2019-02-18T08:03:23.500Z,100410.08
2019-02-18T08:05:52.643Z,100407.94
2019-02-18T08:08:21.775Z,100401.55
2019-02-18T08:10:50.905Z,100400.41
2019-02-18T08:13:20.060Z,100400.90
2019-02-18T08:15:49.199Z,100412.19
2019-02-18T08:18:18.318Z,100402.33
2019-02-18T08:20:47.451Z,100398.77
2019-02-18T08:23:16.597Z,100401.88
2019-02-18T08:25:45.720Z,100398.88
2019-02-18T08:28:14.876Z,100388.95
2019-02-18T08:30:43.994Z,100392.16
2019-02-18T08:33:13.140Z,100388.12
2019-02-18T08:35:42.283Z,100393.11
2019-02-18T08:38:11.412Z,100387.61
2019-02-18T08:40:40.553Z,100394.75
2019-02-18T08:43:09.702Z,100384.62
2019-02-18T08:45:38.842Z,100379.94
2019-02-18T08:48:07.987Z,100383.09
2019-02-18T08:50:37.126Z,100377.34
2019-02-18T08:53:06.252Z,100381.69
2019-02-18T08:55:35.384Z,100376.08
2019-02-18T08:58:04.535Z,100376.13
2019-02-18T09:00:33.655Z,100367.81
2019-02-18T09:03:02.801Z,100372.09
2019-02-18T09:05:31.923Z,100363.56
2019-02-18T09:08:01.093Z,100367.04
2019-02-18T09:10:33.650Z,100361.76
2019-02-18T09:13:01.134Z,100365.39
2019-02-18T09:15:32.941Z,100354.63
2019-02-18T09:18:02.067Z,100352.14
2019-02-18T09:20:31.222Z,100349.01
2019-02-18T09:23:10.771Z,100346.48
2019-02-18T09:25:43.371Z,100347.80
2019-02-18T09:28:12.397Z,100352.58
2019-02-18T09:30:43.195Z,100341.25
2019-02-18T09:33:12.357Z,100347.23
2019-02-18T09:35:41.531Z,100343.00
2019-02-18T09:38:10.637Z,100346.48
2019-02-18T09:40:44.624Z,100341.31
2019-02-18T09:43:10.655Z,100347.19
2019-02-18T09:45:39.807Z,100346.42
2019-02-18T09:48:08.940Z,100330.20
2019-02-18T09:50:38.061Z,100331.44
2019-02-18T09:53:07.173Z,100333.21
2019-02-18T09:55:36.462Z,100327.48
2019-02-18T09:58:05.607Z,100324.93
2019-02-18T10:00:34.810Z,100330.52
2019-02-18T10:03:03.941Z,100325.72
2019-02-18T10:05:33.091Z,100323.46
2019-02-18T10:08:02.209Z,100321.66
2019-02-18T10:10:31.320Z,100324.18
2019-02-18T10:13:00.465Z,100315.20
2019-02-18T10:15:29.613Z,100314.66
2019-02-18T10:17:58.735Z,100316.94
2019-02-18T10:20:27.866Z,100314.84
2019-02-18T10:22:57.019Z,100319.05
2019-02-18T10:25:26.165Z,100314.54
2019-02-18T10:27:55.306Z,100309.98
2019-02-18T10:30:24.420Z,100304.11
2019-02-18T10:32:53.570Z,100307.11
2019-02-18T10:35:22.688Z,100305.29
2019-02-18T10:37:55.149Z,100304.00
2019-02-18T10:40:22.740Z,100303.38
2019-02-18T10:42:51.912Z,100303.22
2019-02-18T10:45:21.039Z,100296.66
2019-02-18T10:47:50.186Z,100295.73
2019-02-18T10:50:19.314Z,100295.39
2019-02-18T10:52:48.452Z,100296.08
2019-02-18T10:55:17.956Z,100292.56
2019-02-18T10:57:47.099Z,100288.66
2019-02-18T11:00:17.520Z,100285.73
2019-02-18T11:02:46.691Z,100284.78
2019-02-18T11:05:15.797Z,100274.78
2019-02-18T11:07:44.940Z,100274.69
2019-02-18T11:10:18.004Z,100276.82
2019-02-18T11:12:47.776Z,100266.63
2019-02-18T11:15:17.014Z,100264.52
2019-02-18T11:17:46.415Z,100262.54
2019-02-18T11:20:15.579Z,100259.55
2019-02-18T11:22:44.717Z,100253.80
2019-02-18T11:25:15.350Z,100247.08
2019-02-18T11:27:44.520Z,100245.61
2019-02-18T11:30:18.287Z,100241.39
2019-02-18T11:32:47.409Z,100237.16
2019-02-18T11:35:16.546Z,100231.16
2019-02-18T11:37:45.721Z,100229.02
2019-02-18T11:40:22.321Z,100217.55
2019-02-18T11:42:51.932Z,100215.20
2019-02-18T11:45:21.091Z,100212.34
2019-02-18T11:47:50.231Z,100214.16
2019-02-18T11:50:19.424Z,100209.55
2019-02-18T11:52:48.559Z,100208.51
2019-02-18T11:55:17.694Z,100205.38
2019-02-18T11:57:47.021Z,100202.78
2019-02-18T12:00:16.974Z,100192.52
2019-02-18T12:02:46.102Z,100192.64
2019-02-18T12:05:15.276Z,100189.54
2019-02-18T12:07:44.383Z,100185.05
2019-02-18T12:10:14.390Z,100177.80
2019-02-18T12:12:45.466Z,100174.23
2019-02-18T12:15:17.507Z,100176.71
2019-02-18T12:17:46.625Z,100166.28
2019-02-18T12:20:16.705Z,100163.97
2019-02-18T12:22:45.831Z,100156.19
2019-02-18T12:25:14.994Z,100154.75
2019-02-18T12:27:44.408Z,100155.20
2019-02-18T12:30:20.008Z,100152.61
2019-02-18T12:32:49.135Z,100146.02
2019-02-18T12:35:18.259Z,100141.96
2019-02-18T12:37:54.966Z,100145.46
2019-02-18T12:40:18.284Z,100136.44
2019-02-18T12:42:47.427Z,100127.84
2019-02-18T12:45:16.547Z,100127.71
2019-02-18T12:47:45.702Z,100127.63
2019-02-18T12:50:14.834Z,100123.52
2019-02-18T12:52:43.999Z,100125.55
2019-02-18T12:55:13.774Z,100115.25
2019-02-18T12:57:42.944Z,100110.72
2019-02-18T13:00:14.276Z,100110.38
2019-02-18T13:02:45.023Z,100113.66
2019-02-18T13:05:14.536Z,100107.73
2019-02-18T13:07:43.770Z,100108.15
2019-02-18T13:10:12.890Z,100106.65
2019-02-18T13:12:42.426Z,100102.59
2019-02-18T13:15:17.594Z,100102.80
2019-02-18T13:17:46.747Z,100097.84
2019-02-18T13:20:15.883Z,100100.61
2019-02-18T13:22:45.026Z,100094.27
2019-02-18T13:25:15.887Z,100092.36
2019-02-18T13:27:45.418Z,100089.70
2019-02-18T13:30:19.180Z,100086.39
2019-02-18T13:32:48.346Z,100082.09
2019-02-18T13:35:17.490Z,100076.62
2019-02-18T13:37:46.644Z,100077.56
2019-02-18T13:40:17.162Z,100074.70
2019-02-18T13:42:48.195Z,100068.32
2019-02-18T13:45:17.339Z,100074.02
2019-02-18T13:47:46.467Z,100067.81
2019-02-18T13:50:15.654Z,100067.63
2019-02-18T13:52:44.785Z,100066.45
2019-02-18T13:55:16.768Z,100063.06
2019-02-18T13:57:45.898Z,100063.97
2019-02-18T14:00:21.014Z,100058.83
2019-02-18T14:02:51.192Z,100062.14
2019-02-18T14:05:21.935Z,100063.74
2019-02-18T14:07:51.089Z,100063.99
2019-02-18T14:10:21.143Z,100062.91
2019-02-18T14:12:50.277Z,100059.86
2019-02-18T14:15:19.823Z,100053.95
2019-02-18T14:17:50.568Z,100053.10
2019-02-18T14:20:19.876Z,100052.23
2019-02-18T14:22:49.010Z,100050.20
2019-02-18T14:25:18.361Z,100051.24
2019-02-18T14:27:47.499Z,100040.78
2019-02-18T14:30:18.452Z,100048.83
2019-02-18T14:32:47.659Z,100042.75
2019-02-18T14:35:17.835Z,100043.45
2019-02-18T14:37:47.069Z,100042.73
2019-02-18T14:40:18.379Z,100046.30
2019-02-18T14:42:47.534Z,100040.77
2019-02-18T14:45:17.046Z,100047.67
2019-02-18T14:47:46.209Z,100047.08
2019-02-18T14:50:18.540Z,100048.50
2019-02-18T14:52:51.684Z,100048.83
2019-02-18T14:55:20.487Z,100046.16
2019-02-18T14:57:49.664Z,100043.81
2019-02-18T15:00:23.676Z,100041.73
2019-02-18T15:02:55.511Z,100042.33
2019-02-18T15:05:26.601Z,100040.50
2019-02-18T15:07:55.794Z,100040.42
2019-02-18T15:10:24.946Z,100030.94
2019-02-18T15:12:54.110Z,100029.20
2019-02-18T15:15:23.229Z,100025.09
2019-02-18T15:17:52.386Z,100030.78
2019-02-18T15:20:21.907Z,100028.34
2019-02-18T15:22:51.057Z,100025.05
2019-02-18T15:25:20.262Z,100023.24
2019-02-18T15:27:49.883Z,100016.09
2019-02-18T15:30:19.147Z,100022.19
2019-02-18T15:32:48.382Z,100014.41
2019-02-18T15:35:17.938Z,100005.31
2019-02-18T15:37:47.094Z,100003.50
2019-02-18T15:40:17.862Z,99996.63
2019-02-18T15:42:47.094Z,99995.07
2019-02-18T15:45:16.250Z,99992.47
2019-02-18T15:47:45.380Z,99991.97
2019-02-18T15:50:15.479Z,99989.47
2019-02-18T15:52:44.634Z,99986.72
2019-02-18T15:55:13.856Z,99984.60
2019-02-18T15:57:42.973Z,99977.20
2019-02-18T16:00:26.732Z,99970.52
2019-02-18T16:02:55.894Z,99972.68
2019-02-18T16:05:25.011Z,99971.57
2019-02-18T16:07:54.166Z,99971.75
2019-02-18T16:10:23.338Z,99972.25
2019-02-18T16:12:54.102Z,99967.53
2019-02-18T16:15:23.691Z,99971.28
2019-02-18T16:17:52.847Z,99967.27
2019-02-18T16:20:22.013Z,99970.20
2019-02-18T16:22:51.157Z,99965.59
2019-02-18T16:25:23.729Z,99967.75
2019-02-18T16:27:52.863Z,99963.19
2019-02-18T16:30:22.296Z,99967.99
2019-02-18T16:32:51.420Z,99965.78
2019-02-18T16:35:21.916Z,99969.20
2019-02-18T16:37:50.996Z,99967.22
2019-02-18T16:40:21.796Z,99969.78
2019-02-18T16:42:58.926Z,99973.62
2019-02-18T16:45:21.808Z,99982.09
2019-02-18T16:47:50.966Z,99988.39
2019-02-18T16:50:20.112Z,99986.67
2019-02-18T16:52:49.272Z,99987.21
2019-02-18T16:55:18.407Z,99989.56
2019-02-18T16:57:47.551Z,99986.75
2019-02-18T17:00:28.940Z,99988.08
2019-02-18T17:02:58.143Z,99989.12
2019-02-18T17:05:27.328Z,99987.88
2019-02-18T17:07:56.462Z,99988.37
2019-02-18T17:10:25.625Z,99994.09
2019-02-18T17:12:54.777Z,99993.84
2019-02-18T17:15:23.917Z,99992.35
2019-02-18T17:17:53.077Z,99986.89
2019-02-18T17:20:22.217Z,99984.97
2019-02-18T17:22:51.401Z,99986.59
2019-02-18T17:25:20.526Z,99980.63
2019-02-18T17:27:49.955Z,99979.79
2019-02-18T17:30:19.139Z,99980.03
2019-02-18T17:32:48.309Z,99986.52
2019-02-18T17:35:17.421Z,99988.89
2019-02-18T17:37:46.602Z,99990.62
2019-02-18T17:40:15.950Z,99988.55
2019-02-18T17:42:45.547Z,99984.86
2019-02-18T17:45:17.417Z,99978.97
2019-02-18T17:47:48.757Z,99977.14
2019-02-18T17:50:18.363Z,99976.08
2019-02-18T17:52:49.320Z,99990.65
2019-02-18T17:55:19.920Z,99990.59
2019-02-18T17:57:49.047Z,99998.38
2019-02-18T18:00:24.945Z,99995.77
2019-02-18T18:02:54.111Z,99991.81
2019-02-18T18:05:23.257Z,99993.17
2019-02-18T18:07:52.432Z,99991.49
2019-02-18T18:10:21.959Z,99981.20
2019-02-18T18:12:51.116Z,99986.79
2019-02-18T18:15:21.112Z,99986.05
2019-02-18T18:17:50.264Z,99997.86
2019-02-18T18:20:19.488Z,99998.28
2019-02-18T18:22:48.678Z,99995.31
2019-02-18T18:25:17.808Z,99989.68
2019-02-18T18:27:46.975Z,99992.03
2019-02-18T18:30:18.471Z,99991.45
2019-02-18T18:32:49.261Z,99989.61
2019-02-18T18:35:18.398Z,99988.75
2019-02-18T18:37:47.555Z,99981.58
2019-02-18T18:40:21.291Z,99983.44
2019-02-18T18:42:50.417Z,99985.56
2019-02-18T18:45:21.269Z,99992.75
2019-02-18T18:47:50.406Z,99998.51
2019-02-18T18:50:23.438Z,99999.72
2019-02-18T18:52:52.616Z,100005.34
2019-02-18T18:55:21.986Z,100000.73
2019-02-18T18:57:51.192Z,100002.78
2019-02-18T19:00:26.906Z,100004.22
2019-02-18T19:02:58.968Z,100002.86
2019-02-18T19:05:28.344Z,99997.11
2019-02-18T19:07:57.500Z,100007.41
2019-02-18T19:10:28.353Z,100004.12
2019-02-18T19:12:57.569Z,99998.47
2019-02-18T19:15:27.115Z,100001.16
2019-02-18T19:17:58.510Z,100001.34
2019-02-18T19:20:29.320Z,100007.58
2019-02-18T19:22:58.461Z,100010.92
2019-02-18T19:25:27.645Z,100017.64
2019-02-18T19:27:56.840Z,100013.90
2019-02-18T19:30:32.787Z,100019.62
2019-02-18T19:33:01.985Z,100022.92
2019-02-18T19:35:31.322Z,100020.64
2019-02-18T19:38:00.459Z,100016.22
2019-02-18T19:40:29.692Z,100022.56
2019-02-18T19:42:58.884Z,100020.41
2019-02-18T19:45:28.053Z,100031.03
2019-02-18T19:47:57.202Z,100034.02
2019-02-18T19:50:26.514Z,100035.81
2019-02-18T19:52:55.680Z,100030.22
2019-02-18T19:55:25.508Z,100029.19
2019-02-18T19:57:54.787Z,100026.75
2019-02-18T20:00:24.013Z,100028.51
2019-02-18T20:02:53.203Z,100035.58
2019-02-18T20:05:22.441Z,100040.33
2019-02-18T20:07:51.611Z,100041.90
2019-02-18T20:10:20.792Z,100041.62
2019-02-18T20:12:49.971Z,100042.50
2019-02-18T20:15:19.115Z,100040.05
2019-02-18T20:17:48.294Z,100039.03
2019-02-18T20:20:18.166Z,100040.29
2019-02-18T20:22:47.347Z,100034.52
2019-02-18T20:25:16.530Z,100033.49
2019-02-18T20:27:46.086Z,100035.06
2019-02-18T20:30:18.715Z,100036.04
2019-02-18T20:32:47.870Z,100034.09
2019-02-18T20:35:17.012Z,100032.63
2019-02-18T20:37:46.199Z,100039.69
2019-02-18T20:40:15.339Z,100041.81
2019-02-18T20:42:44.515Z,100041.38
2019-02-18T20:45:14.652Z,100041.43
2019-02-18T20:47:43.851Z,100034.84
2019-02-18T20:50:14.899Z,100033.33
2019-02-18T20:52:45.703Z,100028.34
2019-02-18T20:55:17.853Z,100035.34
2019-02-18T20:57:56.494Z,100036.44
2019-02-18T21:00:30.464Z,100041.80
2019-02-18T21:03:01.377Z,100038.11
2019-02-18T21:05:30.704Z,100036.27
2019-02-18T21:08:00.022Z,100038.59
2019-02-18T21:10:29.310Z,100037.84
2019-02-18T21:12:58.670Z,100030.34
2019-02-18T21:15:27.873Z,100036.86
2019-02-18T21:17:57.031Z,100038.16
2019-02-18T21:20:26.176Z,100043.80
2019-02-18T21:22:58.043Z,100042.38
2019-02-18T21:25:27.285Z,100047.28
2019-02-18T21:27:56.471Z,100051.30
2019-02-18T21:30:25.628Z,100053.95
2019-02-18T21:32:54.772Z,100043.78
2019-02-18T21:35:24.326Z,100045.90
2019-02-18T21:37:53.463Z,100044.46
2019-02-18T21:40:22.658Z,100049.56
2019-02-18T21:42:51.829Z,100046.42
2019-02-18T21:45:21.010Z,100053.20
2019-02-18T21:47:50.220Z,100049.05
2019-02-18T21:50:20.021Z,100046.61
2019-02-18T21:52:49.175Z,100059.53
2019-02-18T21:55:18.333Z,100055.42
2019-02-18T21:57:47.462Z,100049.92
2019-02-18T22:00:24.801Z,100046.60
2019-02-18T22:02:53.988Z,100052.98
2019-02-18T22:05:23.095Z,100049.66
2019-02-18T22:07:52.258Z,100049.82
2019-02-18T22:10:21.421Z,100049.06
2019-02-18T22:12:50.554Z,100049.72
2019-02-18T22:15:19.762Z,100040.87
2019-02-18T22:18:09.011Z,100044.28
2019-02-18T22:20:27.346Z,100044.77
2019-02-18T22:22:56.505Z,100051.17
2019-02-18T22:25:27.263Z,100046.55
2019-02-18T22:27:56.418Z,100052.11
2019-02-18T22:30:25.554Z,100050.74
2019-02-18T22:32:55.117Z,100060.39
2019-02-18T22:35:24.263Z,100061.58
2019-02-18T22:37:53.400Z,100058.23
2019-02-18T22:40:23.489Z,100057.31
2019-02-18T22:42:53.496Z,100055.29
2019-02-18T22:45:22.961Z,100058.90
2019-02-18T22:47:52.112Z,100054.08
2019-02-18T22:50:21.243Z,100056.45
2019-02-18T22:52:50.403Z,100055.92
2019-02-18T22:55:19.531Z,100056.33
2019-02-18T22:57:48.695Z,100058.94
2019-02-18T23:00:53.413Z,100061.01
2019-02-18T23:03:22.993Z,100066.00
2019-02-18T23:05:52.143Z,100064.20
2019-02-18T23:08:21.293Z,100067.09
2019-02-18T23:10:50.424Z,100065.82
2019-02-18T23:13:20.047Z,100070.46
2019-02-18T23:15:49.176Z,100072.95
2019-02-18T23:18:21.148Z,100071.58
2019-02-18T23:20:50.329Z,100074.52
2019-02-18T23:23:19.460Z,100072.95
2019-02-18T23:25:48.626Z,100071.24
2019-02-18T23:28:21.303Z,100077.05
2019-02-18T23:30:50.462Z,100069.62
2019-02-18T23:33:19.604Z,100072.69
2019-02-18T23:35:48.761Z,100074.22
2019-02-18T23:38:17.896Z,100065.50
2019-02-18T23:40:47.054Z,100066.13
2019-02-18T23:43:16.184Z,100074.05
2019-02-18T23:45:45.328Z,100079.42
2019-02-18T23:48:14.517Z,100074.82
2019-02-18T23:50:43.679Z,100074.52
2019-02-18T23:53:12.808Z,100072.13
2019-02-18T23:55:41.963Z,100070.69
2019-02-18T23:58:11.101Z,100068.94
